»·PEaware :: AAL458 KSEA-KOAK

AAL458 :: KSEA-KOAK

FLIGHT INFORMATION

Flight Status: Arrived
Operator:
American Airlines
More flights by this operator :: More flights under this callsign
Pilot: Paul S. (10596)
Aircraft: BOEING 737-800
(B738)
More flights by this aircraft type
Origin: KSEA Seattle-Tacoma Intl
United States
Destination: KOAK Metro Oakland Intl
United States
More flights between these airports :: More routes between these airports
Route: +HAROB5 HAROB Q5 HUPTU SPAMY WNDSR2
File this flight plan on PilotEdge
Remarks:
Altitude:
(Current/Filed)
33,000ft
Speed:
(Current/Filed)
450kts
Departed: 09-Dec-17 03:45 PM
Arrived: 09-Dec-17 05:30 PM
Distance/Time
Traveled:
584nm/1:45
Distance/Time
To Go:
Arrived

Flight Plot

Page will automatically refresh every two minutes.

Flight plan parsing failed; only flown route is shown


Map Options




Map Legend


Flown Route
Filed Route
Departure Airport
Arrival Airport
Navaid (VOR, NDB)
Fix

Horizontal Profiles

Position Reports

Time Latitude Longitude Heading Altitude Ground
Speed
09-Dec-17 15:05 47.440448 -122.299809 39 440ft 0kts
09-Dec-17 15:06 47.440450 -122.299808 39 440ft 0kts
09-Dec-17 15:07 47.440451 -122.299806 39 440ft 0kts
09-Dec-17 15:08 47.440452 -122.299805 39 440ft 0kts
09-Dec-17 15:09 47.440453 -122.299803 39 440ft 0kts
09-Dec-17 15:10 47.440454 -122.299802 39 440ft 0kts
09-Dec-17 15:11 47.440455 -122.299800 39 440ft 0kts
09-Dec-17 15:12 47.440457 -122.299799 39 440ft 0kts
09-Dec-17 15:13 47.440458 -122.299797 39 440ft 0kts
09-Dec-17 15:14 47.440459 -122.299796 39 440ft 0kts
09-Dec-17 15:15 47.440460 -122.299794 39 440ft 0kts
09-Dec-17 15:16 47.440461 -122.299793 39 440ft 0kts
09-Dec-17 15:17 47.440463 -122.299792 39 440ft 0kts
09-Dec-17 15:18 47.440464 -122.299790 39 440ft 0kts
09-Dec-17 15:19 47.440465 -122.299789 39 440ft 0kts
09-Dec-17 15:20 47.440466 -122.299787 39 440ft 0kts
09-Dec-17 15:21 47.440467 -122.299786 39 440ft 0kts
09-Dec-17 15:22 47.440469 -122.299784 39 440ft 0kts
09-Dec-17 15:23 47.440470 -122.299783 39 440ft 0kts
09-Dec-17 15:24 47.440471 -122.299781 39 440ft 0kts
09-Dec-17 15:26 47.440472 -122.299780 39 440ft 0kts
09-Dec-17 15:27 47.440473 -122.299778 39 440ft 0kts
09-Dec-17 15:28 47.440475 -122.299777 39 440ft 0kts
09-Dec-17 15:29 47.440476 -122.299775 39 441ft 0kts
09-Dec-17 15:30 47.440477 -122.299774 39 441ft 0kts
09-Dec-17 15:31 47.440478 -122.299772 39 441ft 0kts
09-Dec-17 15:32 47.440479 -122.299771 39 441ft 0kts
09-Dec-17 15:33 47.440481 -122.299769 39 441ft 0kts
09-Dec-17 15:34 47.440482 -122.299768 39 441ft 0kts
09-Dec-17 15:35 47.440483 -122.299767 39 441ft 0kts
09-Dec-17 15:36 47.440484 -122.299765 39 441ft 0kts
09-Dec-17 15:37 47.440485 -122.299764 39 441ft 0kts
09-Dec-17 15:38 47.440487 -122.299762 39 441ft 0kts
09-Dec-17 15:39 47.440488 -122.299761 39 441ft 0kts
09-Dec-17 15:40 47.440489 -122.299759 39 441ft 0kts
09-Dec-17 15:41 47.440490 -122.299758 39 441ft 0kts
09-Dec-17 15:42 47.440491 -122.299756 39 441ft 0kts
09-Dec-17 15:43 47.440421 -122.299842 39 441ft 2kts
09-Dec-17 15:44 47.439892 -122.300674 71 441ft 2kts
09-Dec-17 15:45 47.440052 -122.301746 128 441ft 0kts
09-Dec-17 15:46 47.439015 -122.303650 260 441ft 12kts
09-Dec-17 15:47 47.436894 -122.306075 176 441ft 9kts
09-Dec-17 15:48 47.433420 -122.305485 179 441ft 5kts
09-Dec-17 15:49 47.431576 -122.306546 264 441ft 0kts
09-Dec-17 15:50 47.431553 -122.307099 268 441ft 0kts
09-Dec-17 15:51 47.446262 -122.307842 359 612ft 160kts
09-Dec-17 15:52 47.494520 -122.305547 358 2172ft 263kts
09-Dec-17 15:53 47.576381 -122.321899 342 5611ft 294kts
09-Dec-17 15:54 47.650440 -122.343612 2 10001ft 275kts
09-Dec-17 15:55 47.735166 -122.301794 3 11310ft 360kts
09-Dec-17 15:56 47.797296 -122.390006 262 14260ft 345kts
09-Dec-17 15:57 47.739992 -122.499672 212 15201ft 353kts
09-Dec-17 15:58 47.655972 -122.575232 212 18181ft 358kts
09-Dec-17 15:59 47.569247 -122.653726 212 20562ft 373kts
09-Dec-17 16:00 47.470382 -122.710761 213 22647ft 388kts
09-Dec-17 16:01 47.389949 -122.819578 226 24550ft 399kts
09-Dec-17 16:02 47.311200 -122.938715 226 26303ft 410kts
09-Dec-17 16:03 47.216476 -123.029525 189 27811ft 430kts
09-Dec-17 16:04 47.095085 -123.033244 182 29181ft 442kts
09-Dec-17 16:05 46.972432 -123.030200 181 30969ft 437kts
09-Dec-17 16:06 46.851345 -123.026229 181 32589ft 433kts
09-Dec-17 16:07 46.731001 -123.021986 181 33473ft 436kts
09-Dec-17 16:08 46.610268 -123.017658 181 33480ft 431kts
09-Dec-17 16:09 46.490422 -123.013351 181 33488ft 431kts
09-Dec-17 16:10 46.370184 -123.009040 181 33495ft 432kts
09-Dec-17 16:11 46.250181 -123.004753 181 33498ft 431kts
09-Dec-17 16:12 46.130268 -123.000488 181 33507ft 432kts
09-Dec-17 16:13 46.009929 -122.996225 181 33510ft 431kts
09-Dec-17 16:13 45.910040 -122.992702 181 33506ft 431kts
09-Dec-17 16:15 45.769808 -122.987777 181 33509ft 431kts
09-Dec-17 16:15 45.670029 -122.984287 181 33515ft 431kts
09-Dec-17 16:16 45.550380 -122.980119 181 33516ft 431kts
09-Dec-17 16:18 45.410234 -122.975250 181 33514ft 431kts
09-Dec-17 16:18 45.309702 -122.971785 181 33523ft 443kts
09-Dec-17 16:19 45.185126 -122.967500 181 33527ft 447kts
09-Dec-17 16:20 45.060381 -122.963213 181 33517ft 447kts
09-Dec-17 16:21 44.936055 -122.958964 181 33504ft 448kts
09-Dec-17 16:22 44.811656 -122.954710 181 33504ft 448kts
09-Dec-17 16:23 44.686720 -122.950457 181 33506ft 448kts
09-Dec-17 16:24 44.562156 -122.946256 181 33511ft 448kts
09-Dec-17 16:25 44.437033 -122.942215 181 33514ft 449kts
09-Dec-17 16:26 44.312348 -122.938378 181 33512ft 449kts
09-Dec-17 16:27 44.187697 -122.934565 181 33511ft 449kts
09-Dec-17 16:28 44.062448 -122.930728 181 33507ft 449kts
09-Dec-17 16:29 43.937619 -122.926926 181 33507ft 449kts
09-Dec-17 16:30 43.812876 -122.923146 181 33502ft 449kts
09-Dec-17 16:31 43.687698 -122.919369 181 33496ft 449kts
09-Dec-17 16:32 43.562884 -122.915621 181 33489ft 449kts
09-Dec-17 16:33 43.437607 -122.911873 181 33481ft 449kts
09-Dec-17 16:34 43.312963 -122.908161 181 33480ft 448kts
09-Dec-17 16:35 43.188392 -122.904466 181 33474ft 448kts
09-Dec-17 16:36 43.063405 -122.900774 181 33470ft 448kts
09-Dec-17 16:37 42.938724 -122.897106 181 33466ft 448kts
09-Dec-17 16:38 42.814264 -122.893460 181 33464ft 447kts
09-Dec-17 16:39 42.689407 -122.889808 181 33461ft 447kts
09-Dec-17 16:40 42.565194 -122.886206 181 33458ft 448kts
09-Dec-17 16:41 42.440529 -122.882604 181 33459ft 446kts
09-Dec-17 16:42 42.316502 -122.879046 181 33461ft 446kts
09-Dec-17 16:43 42.192306 -122.875503 181 33459ft 447kts
09-Dec-17 16:44 42.067853 -122.871953 181 33467ft 447kts
09-Dec-17 16:45 41.943937 -122.868434 180 33480ft 445kts
09-Dec-17 16:46 41.819484 -122.864917 180 33482ft 446kts
09-Dec-17 16:47 41.695693 -122.861433 180 33491ft 446kts
09-Dec-17 16:48 41.571824 -122.857952 180 33492ft 445kts
09-Dec-17 16:49 41.447537 -122.854488 180 33483ft 445kts
09-Dec-17 16:50 41.323861 -122.850905 179 33476ft 446kts
09-Dec-17 16:51 41.200048 -122.843386 179 33444ft 446kts
09-Dec-17 16:52 41.075871 -122.835907 178 33424ft 445kts
09-Dec-17 16:53 40.952037 -122.828517 178 33413ft 446kts
09-Dec-17 16:54 40.828435 -122.821172 178 33397ft 446kts
09-Dec-17 16:55 40.704397 -122.813846 178 33382ft 444kts
09-Dec-17 16:56 40.581151 -122.806599 178 33362ft 442kts
09-Dec-17 16:57 40.457815 -122.799376 178 33349ft 443kts
09-Dec-17 16:58 40.335014 -122.792210 178 33351ft 442kts
09-Dec-17 16:59 40.212175 -122.785068 178 33355ft 441kts
09-Dec-17 17:00 40.089173 -122.777942 178 33356ft 442kts
09-Dec-17 17:01 39.966742 -122.770877 178 33362ft 441kts
09-Dec-17 17:02 39.846703 -122.763972 178 31554ft 433kts
09-Dec-17 17:03 39.722801 -122.756853 178 28125ft 449kts
09-Dec-17 17:04 39.598247 -122.749753 178 25249ft 442kts
09-Dec-17 17:05 39.482168 -122.732363 163 24127ft 400kts
09-Dec-17 17:06 39.384402 -122.684662 159 24015ft 371kts
09-Dec-17 17:07 39.287402 -122.635230 158 24014ft 375kts
09-Dec-17 17:08 39.189200 -122.590444 169 23889ft 372kts
09-Dec-17 17:09 39.090350 -122.575318 174 23080ft 362kts
09-Dec-17 17:10 38.990141 -122.557028 168 21478ft 361kts
09-Dec-17 17:11 38.892909 -122.531569 168 19910ft 352kts
09-Dec-17 17:12 38.797887 -122.507655 168 18377ft 344kts
09-Dec-17 17:13 38.704699 -122.484444 168 16877ft 337kts
09-Dec-17 17:14 38.612635 -122.467447 172 15404ft 331kts
09-Dec-17 17:15 38.522188 -122.454175 172 13983ft 325kts
09-Dec-17 17:16 38.432944 -122.440731 172 12569ft 320kts
09-Dec-17 17:17 38.345213 -122.427463 172 11175ft 315kts
09-Dec-17 17:18 38.260434 -122.414644 172 10321ft 295kts
09-Dec-17 17:19 38.181371 -122.402527 172 9401ft 281kts
09-Dec-17 17:20 38.104248 -122.390727 172 8281ft 276kts
09-Dec-17 17:21 38.028697 -122.377949 162 7138ft 270kts
09-Dec-17 17:22 37.966468 -122.327329 141 6557ft 266kts
09-Dec-17 17:23 37.907738 -122.270716 142 6049ft 264kts
09-Dec-17 17:24 37.849225 -122.214950 142 5550ft 262kts
09-Dec-17 17:25 37.791968 -122.158562 133 5055ft 258kts
09-Dec-17 17:26 37.747134 -122.096677 132 4987ft 227kts
09-Dec-17 17:27 37.704435 -122.037728 132 5000ft 228kts
09-Dec-17 17:28 37.659026 -121.976687 143 4969ft 225kts
09-Dec-17 17:29 37.608919 -121.986893 229 4973ft 188kts
09-Dec-17 17:30 37.596874 -122.049703 294 3230ft 201kts
09-Dec-17 17:31 37.624791 -122.099166 310 2323ft 152kts
09-Dec-17 17:32 37.652118 -122.140285 312 1501ft 153kts
09-Dec-17 17:33 37.679378 -122.181117 312 693ft 150kts
09-Dec-17 17:34 37.706042 -122.221064 312 14ft 129kts
09-Dec-17 17:35 37.711282 -122.229162 310 14ft 10kts
09-Dec-17 17:36 37.714113 -122.232671 343 14ft 9kts
09-Dec-17 17:37 37.715011 -122.231015 130 14ft 15kts
09-Dec-17 17:38 37.712133 -122.226578 126 14ft 12kts
09-Dec-17 17:40 37.714120 -122.220575 73 14ft 21kts
09-Dec-17 17:41 37.712866 -122.215903 129 14ft 0kts

Navigation Log

Ident Type
Flight plan parsing failed, navigation log unavailable